Decoded Metar for EPKT (KATOWICE in POLAND) (IATA:KTW) | Meteo·Mobile Aviation Weather
aviador You're here:

EPKT Decoded Metar

KATOWICE in POLAND
Report Time2019-07-16 00:30:00
UTC Time2019-07-16 00:48:31
Flight Rules vfr VFR
Wind270° at 05 kt
W.Decomp.*RWY 27: 5.0 kt HW 0.3 kt LCW
Visibility9999 m
Phenomena:N/A
Clouds:N/A
Expected CloudBase > 800 ft AGL from Temp-Dew spread
CeilingNone
Temp08°C (ISA -5)
Dew Point06°C (87% RH)
AAT5.3°C
QNH1014 hPa
Density Alt410 ft
Elevation932 ft
Report Wrong Elevation
Raw Report
EPKT 160030Z 27005KT CAVOK 08/06 Q1014=

Extra information for EPKT:More info

Metar Taf Metar & Taf Last 4 Metars F.Rules Stats Wind Profile Meteogram Temp Stats Airport Information Weather charts Add Link Nearby VenuesMetar ALERT Operation Metar Decoded Social comments